Time;durP1;ratioP1;P1;durP2;ratioP2;P2;SDS_P1;SDS_P2;PMS_P1;PMS_P2;Temp;Humidity;BMP_temperature;BMP_pressure;BME280_temperature;BME280_humidity;BME280_pressure;Samples;Min_cycle;Max_cycle;Signal;HPM_P1;HPM_P2
2021/10/27 00:01:43;;;;;;;63.43;31.20;;;;;;;10.63;100.00;101613.00;5109539;28;20099;-77
2021/10/27 00:04:09;;;;;;;66.65;30.67;;;;;;;10.67;100.00;101604.56;5127283;28;20042;-77
2021/10/27 00:06:35;;;;;;;60.90;31.70;;;;;;;10.69;100.00;101591.91;5127508;28;20106;-76
2021/10/27 00:09:02;;;;;;;57.35;29.00;;;;;;;10.72;100.00;101580.09;5111711;27;20050;-77
2021/10/27 00:11:28;;;;;;;58.92;30.35;;;;;;;10.73;100.00;101568.44;5113177;27;20015;-76
2021/10/27 00:13:53;;;;;;;67.97;29.98;;;;;;;10.75;100.00;101559.31;5131004;27;20337;-76
2021/10/27 00:16:19;;;;;;;59.23;31.43;;;;;;;10.78;100.00;101539.47;5113110;27;20052;-77
2021/10/27 00:18:44;;;;;;;56.20;31.87;;;;;;;10.69;100.00;101535.00;5096426;27;20031;-75
2021/10/27 00:21:10;;;;;;;61.60;29.63;;;;;;;10.73;100.00;101552.44;5095860;27;20445;-76
2021/10/27 00:23:35;;;;;;;65.83;31.67;;;;;;;10.70;100.00;101542.00;5130891;27;20066;-76
2021/10/27 00:26:01;;;;;;;65.53;31.43;;;;;;;10.80;100.00;101563.38;5131138;27;20296;-77
2021/10/27 00:28:26;;;;;;;63.70;31.55;;;;;;;10.73;100.00;101555.09;5113139;27;20031;-76
2021/10/27 00:30:53;;;;;;;69.67;31.93;;;;;;;10.76;100.00;101560.13;5131057;27;20027;-76
2021/10/27 00:33:19;;;;;;;63.92;30.65;;;;;;;10.80;100.00;101550.88;5112639;27;20034;-76
2021/10/27 00:35:44;;;;;;;63.97;31.83;;;;;;;10.81;100.00;101530.31;5112770;27;20612;-76
2021/10/27 00:38:10;;;;;;;55.03;29.70;;;;;;;10.89;100.00;101520.63;5130770;27;20028;-76
2021/10/27 00:40:36;;;;;;;65.78;30.67;;;;;;;10.90;100.00;101500.91;5130691;27;20031;-76
2021/10/27 00:43:01;;;;;;;62.00;31.65;;;;;;;10.85;100.00;101473.78;5130523;27;20406;-77
2021/10/27 00:45:27;;;;;;;60.43;29.17;;;;;;;10.89;100.00;101469.00;5095218;27;20042;-76
2021/10/27 00:47:52;;;;;;;66.87;31.87;;;;;;;10.87;100.00;101446.94;5095682;27;20031;-76
2021/10/27 00:50:18;;;;;;;54.58;29.48;;;;;;;10.86;100.00;101443.41;5095314;27;20356;-76
2021/10/27 00:52:44;;;;;;;51.53;28.63;;;;;;;10.94;100.00;101426.66;5130455;27;20643;-76
2021/10/27 00:55:10;;;;;;;54.28;28.30;;;;;;;10.91;100.00;101411.78;5111675;27;20042;-77
2021/10/27 00:57:36;;;;;;;51.53;27.33;;;;;;;10.97;100.00;101419.19;5130339;27;20035;-76
2021/10/27 01:00:05;;;;;;;55.92;29.55;;;;;;;10.93;100.00;101401.78;5112086;27;20038;-76
2021/10/27 01:02:31;;;;;;;56.65;26.63;;;;;;;10.90;100.00;101407.41;5130132;27;20049;-78
2021/10/27 01:04:56;;;;;;;59.87;30.03;;;;;;;10.95;100.00;101396.28;5111909;27;20482;-77
2021/10/27 01:07:21;;;;;;;52.83;27.53;;;;;;;10.98;100.00;101396.00;5130206;27;20034;-77
2021/10/27 01:09:48;;;;;;;58.10;28.90;;;;;;;10.98;100.00;101394.16;5112088;27;20032;-77
2021/10/27 01:12:13;;;;;;;48.75;26.45;;;;;;;10.96;100.00;101393.47;5112011;27;20027;-77
2021/10/27 01:14:42;;;;;;;52.17;27.40;;;;;;;11.01;100.00;101397.53;5129816;27;20034;-77
2021/10/27 01:17:10;;;;;;;58.72;28.23;;;;;;;11.02;100.00;101393.84;5095229;27;20031;-77
2021/10/27 01:19:48;;;;;;;49.17;26.67;;;;;;;11.07;100.00;101396.91;5111375;27;20035;-77
2021/10/27 01:22:16;;;;;;;63.30;26.48;;;;;;;11.04;100.00;101398.06;5111586;27;20034;-77
2021/10/27 01:24:42;;;;;;;49.80;24.58;;;;;;;11.03;100.00;101392.84;5111602;27;20080;-77
2021/10/27 01:27:08;;;;;;;54.58;26.92;;;;;;;11.01;100.00;101398.34;5112125;27;20058;-77
2021/10/27 01:29:34;;;;;;;47.30;23.95;;;;;;;11.07;100.00;101412.94;5111843;27;20074;-77
2021/10/27 01:32:00;;;;;;;48.15;25.30;;;;;;;11.02;100.00;101413.38;5129672;27;20031;-77
2021/10/27 01:34:26;;;;;;;;;;;;;;;11.00;100.00;101420.72;5130251;27;20038;-77
2021/10/27 01:36:52;;;;;;;;;;;;;;;11.03;100.00;101428.44;5130127;27;19907;-77
2021/10/27 01:39:18;;;;;;;52.42;27.13;;;;;;;11.04;100.00;101429.28;5129888;27;20325;-77
2021/10/27 01:41:43;;;;;;;51.33;26.80;;;;;;;11.04;100.00;101435.47;5129680;27;20031;-78
2021/10/27 01:44:09;;;;;;;53.03;25.30;;;;;;;11.10;100.00;101437.56;5111242;27;20504;-77
2021/10/27 01:46:37;;;;;;;49.20;25.95;;;;;;;11.09;100.00;101438.53;5129678;27;20033;-77
2021/10/27 01:49:06;;;;;;;48.25;24.98;;;;;;;11.12;100.00;101416.88;5129436;27;20149;-78
2021/10/27 01:51:32;;;;;;;46.90;24.25;;;;;;;11.16;100.00;101412.03;5111388;27;20031;-78
2021/10/27 01:53:57;;;;;;;44.95;24.90;;;;;;;11.25;100.00;101415.66;5110350;27;20166;-79
2021/10/27 01:56:24;;;;;;;52.83;25.07;;;;;;;11.26;100.00;101398.63;5111256;27;20031;-78
2021/10/27 01:58:53;;;;;;;46.17;25.15;;;;;;;11.28;100.00;101394.78;5111475;27;20488;-77
2021/10/27 02:01:19;;;;;;;41.75;25.20;;;;;;;11.30;100.00;101395.50;5111141;27;20153;-77
2021/10/27 02:03:45;;;;;;;48.70;24.95;;;;;;;11.28;100.00;101384.09;5094005;27;20126;-78
2021/10/27 02:06:11;;;;;;;49.60;24.95;;;;;;;11.24;100.00;101382.75;5111288;27;20114;-77
2021/10/27 02:08:37;;;;;;;50.25;24.77;;;;;;;11.30;100.00;101403.50;5111028;27;20705;-77
2021/10/27 02:11:03;;;;;;;43.33;22.88;;;;;;;11.26;100.00;101399.47;5111108;27;20431;-78
2021/10/27 02:13:29;;;;;;;42.33;24.77;;;;;;;11.27;100.00;101408.34;5128845;27;20055;-78
2021/10/27 02:15:55;;;;;;;45.10;24.70;;;;;;;11.30;100.00;101414.19;5111042;27;20506;-77
2021/10/27 02:18:21;;;;;;;47.83;24.75;;;;;;;11.29;100.00;101401.84;5129072;27;20027;-78
2021/10/27 02:20:46;;;;;;;49.78;24.77;;;;;;;11.33;100.00;101416.59;5110831;27;20460;-77
2021/10/27 02:23:13;;;;;;;44.20;23.92;;;;;;;11.39;100.00;101413.28;5110257;27;20047;-77
2021/10/27 02:25:38;;;;;;;;;;;;;;;11.42;100.00;101401.47;5094221;27;20062;-78
2021/10/27 02:28:05;;;;;;;46.88;24.65;;;;;;;11.43;100.00;101394.31;5093753;27;19968;-78
2021/10/27 02:30:31;;;;;;;41.72;23.67;;;;;;;11.47;100.00;101384.97;5128699;27;20220;-78
2021/10/27 02:32:57;;;;;;;40.07;22.70;;;;;;;11.52;100.00;101374.63;5109731;27;20072;-77
2021/10/27 02:35:23;;;;;;;42.17;22.17;;;;;;;11.54;100.00;101383.34;5110190;27;20736;-78
2021/10/27 02:37:48;;;;;;;46.38;23.58;;;;;;;11.51;100.00;101372.97;5128289;27;20102;-78
2021/10/27 02:40:14;;;;;;;40.83;22.67;;;;;;;11.52;100.00;101374.63;5110278;27;20046;-77
2021/10/27 02:42:41;;;;;;;46.28;21.92;;;;;;;11.54;100.00;101367.31;5093051;27;20054;-78
2021/10/27 02:45:10;;;;;;;42.10;23.13;;;;;;;11.49;100.00;101354.41;5128072;27;20593;-78
2021/10/27 02:47:36;;;;;;;44.28;23.60;;;;;;;11.52;100.00;101363.94;5110192;27;20035;-78
2021/10/27 02:50:03;;;;;;;44.58;23.17;;;;;;;11.56;100.00;101359.97;5128284;27;20031;-78
2021/10/27 02:52:28;;;;;;;42.88;21.33;;;;;;;11.56;100.00;101354.63;5128163;27;20041;-79
2021/10/27 02:54:54;;;;;;;45.40;21.42;;;;;;;11.66;100.00;101351.84;5109779;27;20031;-78
2021/10/27 02:57:19;;;;;;;40.20;22.50;;;;;;;11.62;100.00;101344.16;5110291;27;20043;-78
2021/10/27 02:59:45;;;;;;;40.17;19.57;;;;;;;11.66;100.00;101334.00;5093169;27;20035;-78
2021/10/27 03:02:10;;;;;;;38.77;20.47;;;;;;;11.68;100.00;101325.81;5128227;27;20038;-78
2021/10/27 03:04:35;;;;;;;36.73;21.00;;;;;;;11.76;100.00;101325.88;5092869;28;20038;-78
2021/10/27 03:07:01;;;;;;;37.72;20.77;;;;;;;11.66;100.00;101304.56;5110376;27;20046;-78
2021/10/27 03:09:26;;;;;;;38.13;20.77;;;;;;;11.73;100.00;101312.78;5110250;28;20019;-78
2021/10/27 03:11:53;;;;;;;40.40;21.45;;;;;;;11.70;100.00;101315.78;5093106;28;20042;-78
2021/10/27 03:14:19;;;;;;;37.70;20.20;;;;;;;11.73;100.00;101327.03;5127795;28;20460;-78
2021/10/27 03:16:45;;;;;;;36.90;20.65;;;;;;;11.71;100.00;101323.66;5092982;28;20027;-78
2021/10/27 03:19:11;;;;;;;38.65;19.90;;;;;;;11.74;100.00;101323.34;5093172;28;20148;-79
2021/10/27 03:21:37;;;;;;;42.47;19.63;;;;;;;11.66;100.00;101317.09;5109823;28;20051;-79
2021/10/27 03:24:03;;;;;;;41.60;20.17;;;;;;;11.69;100.00;101311.44;5109359;28;20087;-79
2021/10/27 03:26:28;;;;;;;35.15;20.17;;;;;;;11.74;100.00;101326.03;5109753;28;20199;-78
2021/10/27 03:28:54;;;;;;;37.20;20.00;;;;;;;11.71;100.00;101314.81;5128034;28;20035;-79
2021/10/27 03:31:20;;;;;;;34.15;19.42;;;;;;;11.81;100.00;101327.06;5109805;28;20284;-78
2021/10/27 03:33:45;;;;;;;40.07;20.30;;;;;;;11.81;100.00;101311.03;5127631;28;20066;-79
2021/10/27 03:36:11;;;;;;;36.43;20.23;;;;;;;11.83;100.00;101313.56;5127993;28;20099;-79
2021/10/27 03:38:37;;;;;;;41.40;20.17;;;;;;;11.75;100.00;101313.47;5092803;28;20273;-79
2021/10/27 03:41:02;;;;;;;37.58;19.17;;;;;;;11.82;100.00;101334.13;5109912;28;20100;-79
2021/10/27 03:43:28;;;;;;;30.93;19.17;;;;;;;11.87;100.00;101335.47;5129344;27;20090;-79
2021/10/27 03:45:54;;;;;;;38.15;18.98;;;;;;;11.86;100.00;101334.63;5113830;27;20059;-79
2021/10/27 03:48:19;;;;;;;32.00;18.70;;;;;;;11.82;100.00;101341.28;5113823;27;20072;-80
2021/10/27 03:50:45;;;;;;;41.80;21.85;;;;;;;11.85;100.00;101343.66;5113716;27;20069;-79
2021/10/27 03:53:11;;;;;;;44.13;21.00;;;;;;;11.84;100.00;101336.63;5096634;27;20023;-79
2021/10/27 03:55:37;;;;;;;42.10;20.55;;;;;;;11.83;100.00;101341.13;5131227;27;20026;-79
2021/10/27 03:58:02;;;;;;;38.63;20.52;;;;;;;11.81;100.00;101351.16;5131706;27;20037;-79
2021/10/27 04:00:28;;;;;;;42.33;20.23;;;;;;;11.74;100.00;101350.09;5131676;27;20035;-78
2021/10/27 04:02:53;;;;;;;47.50;22.73;;;;;;;11.75;100.00;101362.50;5113468;27;20545;-79
2021/10/27 04:05:19;;;;;;;46.63;22.92;;;;;;;11.76;100.00;101363.34;5113475;27;20087;-79
2021/10/27 04:07:45;;;;;;;48.60;22.38;;;;;;;11.74;100.00;101354.63;5131501;27;20260;-78
2021/10/27 04:10:12;;;;;;;44.17;21.35;;;;;;;11.80;100.00;101373.56;5113338;27;20027;-79
2021/10/27 04:12:39;;;;;;;44.45;21.25;;;;;;;11.77;100.00;101367.66;5113490;27;20041;-79
2021/10/27 04:15:07;;;;;;;38.22;21.45;;;;;;;11.82;100.00;101371.56;5130096;27;20047;-79
2021/10/27 04:17:34;;;;;;;48.15;21.45;;;;;;;11.76;100.00;101366.84;5131338;27;20023;-79
2021/10/27 04:19:59;;;;;;;46.45;21.42;;;;;;;11.66;100.00;101344.69;5096227;27;20084;-80
2021/10/27 04:22:25;;;;;;;40.90;20.45;;;;;;;11.76;100.00;101366.84;5113068;27;20031;-79
2021/10/27 04:24:51;;;;;;;45.97;21.45;;;;;;;11.79;100.00;101373.72;5095891;27;20467;-79
2021/10/27 04:27:16;;;;;;;46.93;23.47;;;;;;;11.80;100.00;101373.56;5095642;27;20482;-79
2021/10/27 04:29:42;;;;;;;42.30;22.05;;;;;;;11.80;100.00;101372.72;5130304;27;20027;-79
2021/10/27 04:32:08;;;;;;;49.92;21.83;;;;;;;11.84;100.00;101382.94;5130111;27;20084;-79
2021/10/27 04:34:33;;;;;;;42.58;21.23;;;;;;;11.69;100.00;101362.28;5111721;27;20319;-80
2021/10/27 04:36:59;;;;;;;46.43;23.67;;;;;;;11.81;100.00;101401.16;5113168;27;20352;-79
2021/10/27 04:39:25;;;;;;;51.03;21.98;;;;;;;11.79;100.00;101403.97;5112685;27;20107;-79
2021/10/27 04:41:50;;;;;;;45.88;20.40;;;;;;;11.91;100.00;101396.56;5112722;27;20440;-79
2021/10/27 04:44:16;;;;;;;41.10;22.87;;;;;;;11.90;100.00;101404.78;5095396;27;20480;-79
2021/10/27 04:46:41;;;;;;;46.38;23.55;;;;;;;11.78;100.00;101383.56;5112376;27;20392;-79
2021/10/27 04:49:07;;;;;;;54.60;22.23;;;;;;;11.87;100.00;101399.69;5095413;27;20027;-79
2021/10/27 04:51:32;;;;;;;48.77;22.80;;;;;;;11.92;100.00;101392.91;5130491;27;20046;-80
2021/10/27 04:53:58;;;;;;;42.67;22.47;;;;;;;11.91;100.00;101401.09;5094534;27;20038;-79
2021/10/27 04:56:25;;;;;;;56.47;26.15;;;;;;;11.94;100.00;101414.16;5129782;27;20054;-79
2021/10/27 04:58:50;;;;;;;41.53;21.90;;;;;;;11.81;100.00;101414.53;5130387;27;20043;-79
2021/10/27 05:01:16;;;;;;;53.20;25.43;;;;;;;11.97;100.00;101432.59;5112668;27;20035;-79
2021/10/27 05:03:42;;;;;;;49.97;24.35;;;;;;;11.94;100.00;101420.38;5130131;27;20391;-79
2021/10/27 05:06:08;;;;;;;48.87;23.47;;;;;;;11.87;100.00;101407.72;5112257;27;20142;-79
2021/10/27 05:08:35;;;;;;;47.20;24.13;;;;;;;11.88;100.00;101412.13;5112334;27;20280;-79
2021/10/27 05:11:01;;;;;;;49.72;23.98;;;;;;;11.90;100.00;101415.47;5130313;27;20041;-80
2021/10/27 05:13:27;;;;;;;53.03;22.55;;;;;;;11.91;100.00;101414.47;5129987;27;20035;-79
2021/10/27 05:15:53;;;;;;;45.65;22.48;;;;;;;11.89;100.00;101411.09;5130258;27;20033;-79
2021/10/27 05:18:19;;;;;;;46.30;22.83;;;;;;;11.99;100.00;101418.06;5095287;27;20366;-78
2021/10/27 05:20:46;;;;;;;52.47;23.80;;;;;;;11.97;100.00;101397.81;5095013;27;20064;-79
2021/10/27 05:23:11;;;;;;;54.38;23.40;;;;;;;11.97;100.00;101392.44;5111242;27;20119;-79
2021/10/27 05:25:37;;;;;;;49.03;24.70;;;;;;;11.86;100.00;101377.44;5094370;27;20539;-79
2021/10/27 05:28:03;;;;;;;44.65;23.55;;;;;;;11.89;100.00;101379.00;5111427;27;20157;-79
2021/10/27 05:30:28;;;;;;;41.28;23.90;;;;;;;11.93;100.00;101375.03;5111315;27;20037;-79
2021/10/27 05:32:57;;;;;;;44.10;22.53;;;;;;;12.00;100.00;101382.25;5111306;27;20163;-79
2021/10/27 05:35:24;;;;;;;49.53;22.23;;;;;;;12.00;100.00;101376.06;5094462;27;20280;-79
2021/10/27 05:37:50;;;;;;;44.05;21.60;;;;;;;11.94;100.00;101382.03;5128758;27;20050;-81
2021/10/27 05:40:15;;;;;;;53.63;24.20;;;;;;;11.90;100.00;101368.16;5111739;27;20035;-78
2021/10/27 05:42:41;;;;;;;47.42;22.48;;;;;;;11.96;100.00;101370.22;5111397;27;20027;-80
2021/10/27 05:45:07;;;;;;;55.43;24.37;;;;;;;11.91;100.00;101374.34;5111358;27;20047;-79
2021/10/27 05:47:33;;;;;;;;;;;;;;;11.88;100.00;101385.34;5095119;27;20330;-80
2021/10/27 05:55:29;;;;;;;47.78;23.42;;;;;;;11.79;100.00;101409.31;5110862;27;20130;-79
2021/10/27 05:57:55;;;;;;;52.95;25.98;;;;;;;11.78;100.00;101429.06;5129355;27;20065;-80
2021/10/27 06:00:21;;;;;;;53.97;25.63;;;;;;;11.80;100.00;101431.59;5093752;27;20027;-80
2021/10/27 06:02:46;;;;;;;51.13;24.98;;;;;;;11.76;100.00;101419.50;5093627;27;20035;-80
2021/10/27 06:05:12;;;;;;;44.50;23.57;;;;;;;11.81;100.00;101439.44;5128772;27;20323;-80
2021/10/27 06:07:38;;;;;;;53.20;24.90;;;;;;;11.86;100.00;101430.94;5110515;27;20091;-79
2021/10/27 06:10:05;;;;;;;42.35;23.25;;;;;;;11.78;100.00;101412.16;5093781;27;20034;-79
2021/10/27 06:12:30;;;;;;;48.90;24.52;;;;;;;11.72;100.00;101416.28;5093896;27;20533;-79
2021/10/27 06:14:56;;;;;;;47.05;24.58;;;;;;;11.83;100.00;101416.06;5110655;27;20125;-79
2021/10/27 06:17:21;;;;;;;47.75;25.35;;;;;;;11.84;100.00;101403.50;5110886;27;20116;-79
2021/10/27 06:19:47;;;;;;;46.63;23.63;;;;;;;11.92;100.00;101402.78;5093986;27;20087;-79
2021/10/27 06:22:13;;;;;;;51.33;24.80;;;;;;;11.89;100.00;101401.22;5128872;27;20115;-78
2021/10/27 06:24:40;;;;;;;44.75;23.17;;;;;;;11.89;100.00;101392.38;5093599;27;20481;-79
2021/10/27 06:27:06;;;;;;;47.33;21.23;;;;;;;11.94;100.00;101390.06;5110965;27;20035;-79
2021/10/27 06:29:37;;;;;;;39.72;21.02;;;;;;;11.92;100.00;101381.38;5129058;27;20120;-79
2021/10/27 06:34:53;;;;;;;42.58;20.65;;;;;;;12.06;100.00;101387.97;5128136;27;20031;-79
2021/10/27 06:47:41;;;;;;;38.85;18.48;;;;;;;12.10;100.00;101357.22;5127073;27;20512;-79
2021/10/27 06:50:06;;;;;;;38.23;18.87;;;;;;;12.12;100.00;101358.75;5108900;27;20110;-78
2021/10/27 06:52:32;;;;;;;40.72;19.20;;;;;;;12.17;100.00;101353.75;5109230;27;20058;-78
2021/10/27 06:54:58;;;;;;;35.17;18.07;;;;;;;12.19;100.00;101362.47;5092784;27;20081;-79
2021/10/27 06:57:26;;;;;;;30.63;17.85;;;;;;;12.22;100.00;101359.50;5110231;27;20649;-79
2021/10/27 06:59:59;;;;;;;31.73;17.52;;;;;;;12.21;100.00;101362.31;5110340;27;20356;-78
2021/10/27 07:05:14;;;;;;;31.50;16.58;;;;;;;12.18;100.00;101366.16;5109794;28;20455;-79
2021/10/27 07:16:18;;;;;;;40.55;17.35;;;;;;;12.30;100.00;101395.34;5024883;28;20039;-79
2021/10/27 07:18:45;;;;;;;24.48;15.77;;;;;;;12.33;100.00;101395.03;5008204;28;20040;-79
2021/10/27 07:21:10;;;;;;;33.87;16.83;;;;;;;12.32;100.00;101393.34;5066478;27;20451;-78
2021/10/27 07:23:39;;;;;;;41.50;18.13;;;;;;;12.30;100.00;101393.50;5092626;28;20349;-79
2021/10/27 07:26:05;;;;;;;28.80;16.05;;;;;;;12.25;100.00;101379.75;5110158;28;20467;-78
2021/10/27 07:28:31;;;;;;;31.65;17.42;;;;;;;12.33;100.00;101408.41;5128168;28;20087;-79
2021/10/27 07:30:58;;;;;;;28.70;16.50;;;;;;;12.37;100.00;101415.16;5128135;28;20023;-78
2021/10/27 07:33:26;;;;;;;28.38;16.80;;;;;;;12.35;100.00;101409.94;5109634;28;20057;-78
2021/10/27 07:35:59;;;;;;;31.20;16.80;;;;;;;12.32;100.00;101414.78;5110031;27;20026;-79
2021/10/27 07:41:12;;;;;;;35.67;18.63;;;;;;;12.37;100.00;101417.81;5109714;28;20046;-79
2021/10/27 07:43:37;;;;;;;36.17;17.30;;;;;;;12.38;100.00;101427.53;5109436;28;20452;-80
2021/10/27 07:46:03;;;;;;;30.33;15.45;;;;;;;12.38;100.00;101424.84;5126334;28;20084;-79
2021/10/27 07:48:30;;;;;;;32.28;15.57;;;;;;;12.36;100.00;101426.84;5109459;28;20043;-80
2021/10/27 07:50:59;;;;;;;31.90;16.88;;;;;;;12.37;100.00;101423.19;5109343;28;20031;-80
2021/10/27 07:53:27;;;;;;;22.98;14.32;;;;;;;12.41;100.00;101445.97;5127465;28;20030;-80
2021/10/27 07:55:54;;;;;;;35.58;14.73;;;;;;;12.41;100.00;101437.94;5108991;28;20026;-81
2021/10/27 07:58:21;;;;;;;29.85;14.68;;;;;;;12.41;100.00;101435.25;5127652;27;20094;-79
2021/10/27 08:00:49;;;;;;;27.42;13.07;;;;;;;12.43;100.00;101435.91;5127554;27;20114;-78
2021/10/27 08:03:15;;;;;;;29.02;14.27;;;;;;;12.40;100.00;101439.75;5109274;28;20068;-79
2021/10/27 08:05:42;;;;;;;21.83;13.40;;;;;;;12.41;100.00;101451.31;5092372;28;20031;-81
2021/10/27 08:08:11;;;;;;;30.35;14.32;;;;;;;12.38;100.00;101459.66;5109617;28;20042;-81
2021/10/27 08:10:37;;;;;;;26.52;14.02;;;;;;;12.40;100.00;101455.81;5127922;27;20103;-81
2021/10/27 08:13:03;;;;;;;30.27;15.55;;;;;;;12.40;100.00;101463.00;5109446;28;20402;-81
2021/10/27 08:15:32;;;;;;;24.00;13.63;;;;;;;12.33;100.00;101449.41;5127092;27;20035;-82
2021/10/27 08:17:58;;;;;;;30.70;14.13;;;;;;;12.40;100.00;101460.34;5127826;27;20109;-82
2021/10/27 08:20:27;;;;;;;27.80;13.90;;;;;;;12.35;100.00;101458.13;5127688;28;20054;-82
2021/10/27 08:22:58;;;;;;;27.15;12.50;;;;;;;12.44;100.00;101483.13;5127031;28;20035;-81
2021/10/27 08:25:34;;;;;;;26.75;13.55;;;;;;;12.41;100.00;101478.09;5107114;27;20041;-82
2021/10/27 08:28:05;;;;;;;27.52;13.07;;;;;;;12.43;100.00;101494.81;5108246;28;20042;-82
2021/10/27 08:30:36;;;;;;;30.63;14.18;;;;;;;12.41;100.00;101478.09;5109735;27;20038;-81
2021/10/27 08:33:05;;;;;;;26.42;12.60;;;;;;;12.49;100.00;101485.34;5112261;27;20411;-81
2021/10/27 08:35:32;;;;;;;27.85;12.75;;;;;;;12.48;100.00;101478.28;5111657;27;20045;-82
2021/10/27 08:37:58;;;;;;;23.13;11.98;;;;;;;12.49;100.00;101475.47;5129875;27;20060;-82
2021/10/27 08:40:26;;;;;;;22.45;11.02;;;;;;;12.53;100.00;101476.84;5112937;27;20427;-82
2021/10/27 08:42:51;;;;;;;24.15;11.27;;;;;;;12.55;100.00;101493.59;5113029;27;20379;-81
2021/10/27 08:45:17;;;;;;;19.25;10.98;;;;;;;12.43;100.00;101473.41;5112898;27;20035;-82
2021/10/27 08:47:48;;;;;;;20.47;12.07;;;;;;;12.44;100.00;101480.47;5130933;27;20035;-81
2021/10/27 08:50:14;;;;;;;27.05;12.02;;;;;;;12.43;100.00;101497.50;5096003;27;20797;-82
2021/10/27 08:52:41;;;;;;;22.48;10.70;;;;;;;12.42;100.00;101507.38;5113131;27;20034;-81
2021/10/27 08:55:10;;;;;;;23.77;11.07;;;;;;;12.44;100.00;101504.56;5112407;27;20039;-82
2021/10/27 08:57:36;;;;;;;24.52;10.65;;;;;;;12.40;100.00;101504.03;5112452;27;20039;-80
2021/10/27 09:00:06;;;;;;;21.23;11.55;;;;;;;12.36;100.00;101491.09;5095640;27;20027;-84
2021/10/27 09:02:47;;;;;;;24.48;10.90;;;;;;;12.29;100.00;101506.97;5130548;27;20062;-81
2021/10/27 09:05:31;;;;;;;21.60;10.88;;;;;;;12.34;100.00;101526.09;5142695;27;20110;-82
2021/10/27 09:08:19;;;;;;;23.05;12.15;;;;;;;12.32;100.00;101517.34;5116741;27;20049;-81
2021/10/27 09:16:33;;;;;;;21.83;11.90;;;;;;;12.42;100.00;101518.09;5150896;27;20034;-80
2021/10/27 09:38:52;;;;;;;25.08;11.20;;;;;;;12.51;100.00;101537.75;5132451;27;19933;-83
2021/10/27 09:55:50;;;;;;;21.58;9.80;;;;;;;12.69;100.00;101513.63;5131365;27;20046;-80
2021/10/27 10:04:17;;;;;;;17.93;8.97;;;;;;;12.71;100.00;101508.06;5149503;27;20109;-79
2021/10/27 10:06:46;;;;;;;16.75;9.48;;;;;;;12.72;100.00;101507.09;5114485;27;20030;-78
2021/10/27 10:09:13;;;;;;;20.58;8.63;;;;;;;12.78;100.00;101526.06;5131565;27;20031;-79
2021/10/27 10:11:38;;;;;;;16.55;8.20;;;;;;;12.73;100.00;101517.63;5149808;27;20053;-79
2021/10/27 10:14:06;;;;;;;13.60;7.88;;;;;;;12.76;100.00;101520.03;5130541;27;20034;-79
2021/10/27 10:16:36;;;;;;;17.40;8.52;;;;;;;12.82;100.00;101523.91;5114240;27;20030;-80
2021/10/27 10:19:09;;;;;;;18.63;8.55;;;;;;;12.80;100.00;101531.25;5130929;27;20081;-80
2021/10/27 10:21:35;;;;;;;17.48;9.27;;;;;;;12.86;100.00;101534.13;5131254;27;20493;-80
2021/10/27 10:24:22;;;;;;;18.38;9.25;;;;;;;12.71;100.00;101542.91;5149326;27;20027;-80
2021/10/27 10:26:52;;;;;;;21.10;10.90;;;;;;;12.65;100.00;101566.66;5114180;27;20390;-79
2021/10/27 10:29:58;;;;;;;23.83;11.32;;;;;;;12.65;100.00;101590.78;5131134;27;20452;-78
2021/10/27 10:32:28;;;;;;;29.88;11.52;;;;;;;12.61;100.00;101596.59;5150155;27;20071;-78
2021/10/27 10:35:32;;;;;;;23.23;10.95;;;;;;;12.59;100.00;101609.28;5131597;27;20038;-78
2021/10/27 10:56:30;;;;;;;20.05;10.43;;;;;;;12.73;100.00;101635.53;5149918;27;20065;-83
2021/10/27 11:24:38;;;;;;;19.25;7.18;;;;;;;12.97;100.00;101516.97;5131283;27;20022;-78
2021/10/27 11:40:34;;;;;;;15.90;6.05;;;;;;;13.15;100.00;101526.75;5130677;27;20038;-79
2021/10/27 11:51:11;;;;;;;10.73;7.07;;;;;;;13.23;100.00;101505.34;5117570;27;20117;-79
2021/10/27 11:53:38;;;;;;;12.93;7.03;;;;;;;13.20;100.00;101494.94;5131375;27;20069;-78
2021/10/27 11:56:17;;;;;;;13.95;7.10;;;;;;;13.19;100.00;101498.63;5131000;27;20030;-79
2021/10/27 11:58:46;;;;;;;13.30;7.20;;;;;;;13.21;100.00;101507.34;5131775;27;20080;-79
2021/10/27 12:01:27;;;;;;;11.55;5.93;;;;;;;13.12;100.00;101492.22;5118519;27;20037;-80
2021/10/27 12:03:57;;;;;;;22.45;8.23;;;;;;;13.19;100.00;101501.31;5149241;27;20026;-80
2021/10/27 12:09:08;;;;;;;23.40;7.22;;;;;;;13.25;100.00;101492.59;5114695;27;20038;-78
2021/10/27 12:12:05;;;;;;;21.05;7.50;;;;;;;13.19;100.00;101487.91;5099739;27;20099;-79
2021/10/27 12:14:53;;;;;;;14.48;7.40;;;;;;;13.16;100.00;101477.47;5135098;27;20413;-79
2021/10/27 12:17:34;;;;;;;13.70;6.57;;;;;;;13.20;100.00;101489.56;5118424;27;20222;-80
2021/10/27 12:20:00;;;;;;;12.48;6.70;;;;;;;13.26;100.00;101495.13;5118333;27;20030;-79
2021/10/27 12:22:26;;;;;;;21.27;7.00;;;;;;;13.26;100.00;101497.81;5153487;27;20458;-80
2021/10/27 12:24:55;;;;;;;15.65;7.80;;;;;;;13.25;100.00;101498.81;5134195;27;20039;-79
2021/10/27 12:27:31;;;;;;;13.50;7.35;;;;;;;13.28;100.00;101503.06;5134600;27;20460;-79
2021/10/27 12:29:59;;;;;;;17.35;7.13;;;;;;;13.30;100.00;101490.34;5135467;27;20084;-79
2021/10/27 12:32:27;;;;;;;12.93;7.22;;;;;;;13.28;100.00;101486.97;5134746;27;20033;-79
2021/10/27 12:35:07;;;;;;;12.68;6.82;;;;;;;13.27;100.00;101474.50;5134872;27;20477;-79
2021/10/27 12:37:41;;;;;;;15.48;7.53;;;;;;;13.27;100.00;101475.41;5117870;27;20345;-79
2021/10/27 12:40:19;;;;;;;13.30;7.05;;;;;;;13.35;100.00;101482.63;5153057;27;20133;-78
2021/10/27 12:42:45;;;;;;;17.63;9.05;;;;;;;13.25;100.00;101471.16;5151647;27;20040;-79
2021/10/27 12:45:12;;;;;;;16.63;9.52;;;;;;;13.21;100.00;101470.66;5134480;27;20030;-80
2021/10/27 12:47:41;;;;;;;17.55;9.20;;;;;;;13.22;100.00;101480.34;5151226;27;20019;-79
2021/10/27 12:50:16;;;;;;;17.33;8.30;;;;;;;13.24;100.00;101482.88;5131644;27;20031;-80
2021/10/27 12:52:51;;;;;;;14.68;8.52;;;;;;;13.21;100.00;101481.38;5131760;27;20447;-81
2021/10/27 12:55:39;;;;;;;19.07;8.93;;;;;;;13.10;100.00;101487.84;5131195;27;20033;-81
2021/10/27 12:58:17;;;;;;;13.68;8.95;;;;;;;13.16;100.00;101488.22;5131000;27;20364;-80
2021/10/27 13:01:11;;;;;;;12.18;8.27;;;;;;;13.17;100.00;101485.38;5113460;27;20060;-80
2021/10/27 13:22:28;;;;;;;14.82;7.90;;;;;;;13.22;100.00;101474.16;5132200;27;20034;-78
2021/10/27 13:30:16;;;;;;;13.60;8.18;;;;;;;13.25;100.00;101481.88;5132210;27;20034;-79
2021/10/27 13:32:56;;;;;;;14.23;8.02;;;;;;;13.25;100.00;101466.66;5150747;27;20030;-79
2021/10/27 13:35:23;;;;;;;12.90;7.93;;;;;;;13.37;100.00;101480.63;5115180;27;20038;-79
2021/10/27 13:37:49;;;;;;;;;;;;;;;13.48;100.00;101482.16;5132368;27;20030;-79
2021/10/27 13:40:15;;;;;;;14.25;8.25;;;;;;;13.48;100.00;101474.09;5131978;27;19915;-79
2021/10/27 13:42:52;;;;;;;16.88;7.85;;;;;;;13.47;100.00;101459.84;5150354;27;20027;-79
2021/10/27 14:09:59;;;;;;;11.90;7.17;;;;;;;13.59;100.00;101456.88;5149827;27;20097;-79
2021/10/27 14:12:04;;;;;;;7.53;6.03;;;;;;;13.59;99.28;101448.81;5117276;27;20043;-79
2021/10/27 14:14:41;;;;;;;10.73;6.10;;;;;;;13.59;98.88;101446.13;5131537;27;20375;-80
2021/10/27 14:22:42;;;;;;;12.45;6.60;;;;;;;13.51;98.46;101449.66;5149454;27;20042;-78
2021/10/27 14:48:15;;;;;;;13.93;7.28;;;;;;;13.23;99.78;101457.09;5131160;27;19915;-79
2021/10/27 15:20:43;;;;;;;17.88;7.95;;;;;;;13.18;99.69;101464.75;5130581;27;20030;-79
2021/10/27 15:23:16;;;;;;;14.40;7.28;;;;;;;13.14;99.71;101463.44;5130278;27;20035;-79